CLMO2: North Canadian River

                                SHEF ID:       CLMO2     North Canadian River near Calume
STATION TYPE:
Regulating: Stage = 12.00, Flow = 1420

STAGE STAGE(2) RIV-FLOW WTR-TEMP DIS-OXY PH CONDUCT BAT-LOAD
ft ft cfs F mg/l su umho/cm volt
Ccp-Rev Ccp-Rev Ccp-Rev Ccp-Rev Ccp-Rev Ccp-Rev Ccp-Rev Ccp-Rev
(America/Chicago)
04/27 00:00 3.66 ---- 24 78.69 6.17 8.33 1443 12.60
04/27 01:00 3.66 ---- 24 77.54 6.12 8.32 1446 12.63
04/27 02:00 3.66 ---- 24 76.64 6.14 8.30 1450 12.55
04/27 03:00 3.66 ---- 24 75.92 6.18 8.29 1453 12.59
04/27 04:00 3.66 ---- 24 75.33 6.23 8.28 1455 12.52
04/27 05:00 3.66 ---- 24 74.79 6.26 8.28 1456 12.57
04/27 06:00 3.66 ---- 24 74.21 6.32 8.27 1457 12.50
04/27 07:00 3.67 ---- 25 73.67 6.37 8.27 1458 12.54
04/27 08:00 3.67 ---- 25 73.27 6.67 8.29 1452 12.49
04/27 09:00 3.67 ---- 25 73.33 7.22 8.32 1458 12.57
04/27 10:00 3.67 ---- 25 74.35 8.06 8.38 1458 12.53
04/27 11:00 3.68 ---- 25 76.55 8.88 8.43 1458 12.61
04/27 12:00 3.68 ---- 25 79.65 9.58 8.46 1460 12.57
04/27 13:00 3.67 ---- 25 82.80 10.03 8.48 1451 12.64
04/27 14:00 3.66 ---- 24 85.53 10.38 8.49 1462 13.10
04/27 15:00 3.66 ---- 24 88.11 10.44 8.47 1446 13.15
04/27 16:00 3.65 ---- 23 89.58 10.31 8.46 1444 12.99
04/27 17:00 3.64 ---- 23 89.85 9.76 8.45 1419 12.94
04/27 18:00 3.63 ---- 22 88.92 9.32 8.44 1438 12.87
04/27 19:00 3.64 ---- 23 86.74 8.30 8.43 1433 12.89
04/27 20:00 3.64 ---- 23 84.65 7.57 8.41 1443 12.82
04/27 21:00 3.64 ---- 23 82.69 6.81 8.39 1441 12.78
04/27 22:00 3.64 ---- 23 80.80 6.44 8.38 1441 12.67
04/27 23:00 3.64 ---- 23 79.20 6.26 8.35 1445 12.70
Data processed at Tue 28Apr2026 04:25 GMT

NOTICE: If you are parsing this page

Please convert to using our Data API. Starting early 2026 we will be migrating to: https://water.usace.army.mil with modern pages rendered in JavaScript. When this migration completes you will no longer be able to scrape this page! CWMSDataAPI (CDA)

Timeseries IDs (TSIDs)

TSIDs used from left to right in the data table
CALU.Stage.Inst.1Hour.0.Ccp-Rev
CALU.Stage-Alt.Inst.1Hour.0.Ccp-Rev
CALU.Flow.Inst.1Hour.0.Ccp-Rev
CALU.Temp-Water.Inst.1Hour.0.Ccp-Rev
CALU.Conc-DO.Inst.1Hour.0.Ccp-Rev
CALU.pH.Inst.1Hour.0.Ccp-Rev
CALU.Cond-Water.Inst.1Hour.0.Ccp-Rev
CALU.Volt-Battery Load.Inst.1Hour.0.Ccp-Rev

                            

All information presented herein is the property of the government of the United States of America and may be revised or deleted at any time without prior notice. Dissemination of this information without the expressed written consent of the Public Affairs Office, Tulsa District U.S. Army Corps of Engineers is strictly prohibited. These data are gathered electronically and, as presented, have NOT undergone any form of quality control. These data are NOT guaranteed to be valid or correct.